Buffalo Lake, MN

11:05 PM CDT on March 26, 2015 (GMT -0500)
Hutchinson Municipal-Butler | | Change Station
CLOSE
Current Station
Airport
Location: Hutchinson,
Elevation: 1060 ft
Nearby Weather Stations

Elev 1060 ft 44.86 °N, 94.39 °W | Updated 13 minutes ago

Clear
Clear
21 °F
Feels Like 16 °F
N
4
Wind Variable Wind from NW

Today
High -- | Low -- °F
--% Chance of Precip.
Yesterday
High -- | Low -- °F
Precip. -- in
7:10 AM 7:38 PM
Waxing Crescent, 48% visible
Pressure 30.22 in
Visibility 10.0 miles
Clouds Clear
Windchill 16 °F
Dew Point 16 °F
Humidity 80%
Rainfall 0.00 in
Snow Depth Not available.
UV 0 out of 12
Pollen 1.80 out of 12
Air Quality Not available.
Flu Activity Not available.
METAR KHCD 270352Z AUTO 32003KT 10SM CLR M06/M09 A3022 RMK AO2 T10601089

More Conditions Fewer Conditions

Pressure 30.22 in
Visibility 10.0 miles
Clouds Clear
Windchill 16 °F
Dew Point 16 °F
Humidity 80%
Rainfall 0.00 in
Snow Depth Not available.
UV 0 out of 12
Pollen 1.80 out of 12
Air Quality Not available.
Flu Activity Not available.
METAR KHCD 270352Z AUTO 32003KT 10SM CLR M06/M09 A3022 RMK AO2 T10601089

More Conditions Fewer Conditions

10-Day Weather Forecast

Almanac

Astronomy

Mar. 26, 2015 Rise Set
Actual Time
Civil Twilight
Nautical Twilight
Astronomical Twilight
Moon
Length of Visible Light
Length of Day
Tomorrow will be .
, % of the Moon is Illuminated

Today's Extremes

State Highs State Lows

Community

WunderPhotos

Upload Photos

1,808,706 photos uploaded!

WunderBlogs® & News

Nearby

Air Quality

  Air Quality AQ Index Pollutant
Not available.

Snow Depth

Station Depth Elevation

Earthquake Activity

City Distance Mag. Time & Date
Minimum magnitude displayed is 2.5.

Coastal Water Temperatures

Place Temperature

Stations

Nearby Weather Stations

Station Location Temp. Windchill Dew Point Humidity Wind Precip. Elev Updated Type